Airfield :
LOGIN :

Register | Disclaimer

   EN    FR    IT 

 










Legend :    VFR   Marginal VFR   IFR   Intensive IFR   Very Intensive IFR
Visi :
Ceiling :
>= 8 km
>= 3000ft
5 to 8 km
1000 to 3000 ft
1500m to 5 km
500 to 1000 ft
800 to 1500m
200 to 500 ft
< 800m
< 200 ft
Symbols :   Thunderstorms  Fog  Heavy snow  Heavy precipitations  Wind > 20 kt
SIGMETs :     Misc.  Thunderstorms  Icing  Turbulence  Mountain Waves  Volcanic Ashes







- Airport Elevation : 436 ft
- IATA code : BTS


LZIB - Bratislava

CURRENT METAR :
  • 190900Z 07003KT 8000 NSC 06/02 Q1020 NOSIG

EXPIRED METARs :
  • 190830Z 05005KT 8000 NSC 05/02 Q1020 NOSIG
  • 190800Z 05004KT 8000 NSC 04/01 Q1020 NOSIG
  • 190738Z 04004KT 8000 NSC 03/01 Q1020
  • 190730Z 04004KT 7000 NSC 01/M00 Q1020 NOSIG
  • 190700Z 03005KT 7000 NSC M00/M02 Q1020 NOSIG
  • 190630Z 02006KT 6000 NSC M00/M02 Q1020 NOSIG

TAF TAF LZIB
Valid from the 19 at 06:00 until the 20 at 06:00 UTC


190500Z 1906/2006 04006KT CAVOK
TEMPO 1906/1908 2500 BR SCT004
PROB40
TEMPO 1906/1907 0700 FZFG BKN001
BECMG 1910/1912 29007KT
TEMPO 2000/2006 32012KT 9999 SCT040
No reported NOTAMs for that airfield.



MET'MAP, your aeronautical weather chart ! - Copyright ORBIFLY December 2007 - Disclaimer

ORBIFLY MET'MAP TEAM :

Programming & Development : Alexandra Zaïnal
Concept & Development : Baudouin d'Aumeries
Co-Development & Prog : Marc-Olivier Méhu
Technical & hardware support : Manuel Goepfert

Contact : metmap@orbifly.com




SOURCES & CREDITS :

   NOAA